createdAt,value
2018-11-12T00:00:49.353Z,6.10
2018-11-12T00:03:17.650Z,6.00
2018-11-12T00:05:45.942Z,6.00
2018-11-12T00:08:14.238Z,6.10
2018-11-12T00:10:42.498Z,6.20
2018-11-12T00:13:10.818Z,6.20
2018-11-12T00:15:39.106Z,6.30
2018-11-12T00:18:07.402Z,6.50
2018-11-12T00:20:35.716Z,6.40
2018-11-12T00:23:04.074Z,6.40
2018-11-12T00:25:32.367Z,6.60
2018-11-12T00:28:00.698Z,6.50
2018-11-12T00:30:28.979Z,6.50
2018-11-12T00:32:57.290Z,6.40
2018-11-12T00:35:25.561Z,6.30
2018-11-12T00:37:53.871Z,6.20
2018-11-12T00:40:22.138Z,6.20
2018-11-12T00:42:50.447Z,6.30
2018-11-12T00:45:18.754Z,6.30
2018-11-12T00:47:47.031Z,6.60
2018-11-12T00:50:15.890Z,6.70
2018-11-12T00:52:44.151Z,6.80
2018-11-12T00:55:13.706Z,7.00
2018-11-12T00:57:42.371Z,6.90
2018-11-12T01:00:17.659Z,7.00
2018-11-12T01:02:47.066Z,6.90
2018-11-12T01:05:16.086Z,7.00
2018-11-12T01:07:44.538Z,7.20
2018-11-12T01:10:13.988Z,7.30
2018-11-12T01:12:42.869Z,7.40
2018-11-12T01:15:14.138Z,7.50
2018-11-12T01:17:42.626Z,7.70
2018-11-12T01:20:12.379Z,7.90
2018-11-12T01:22:40.675Z,8.10
2018-11-12T01:25:10.158Z,8.30
2018-11-12T01:27:39.058Z,8.30
2018-11-12T01:30:09.614Z,8.50
2018-11-12T01:32:38.023Z,8.80
2018-11-12T01:35:07.242Z,8.80
2018-11-12T01:37:35.538Z,8.60
2018-11-12T01:40:03.889Z,8.50
2018-11-12T01:42:32.379Z,8.40
2018-11-12T01:45:00.679Z,8.50
2018-11-12T01:47:28.966Z,8.40
2018-11-12T01:49:57.304Z,8.30
2018-11-12T01:52:25.606Z,8.00
2018-11-12T01:54:53.907Z,8.00
2018-11-12T01:57:22.174Z,8.10
2018-11-12T01:59:50.456Z,7.90
2018-11-12T02:02:18.771Z,7.80
2018-11-12T02:04:47.131Z,7.80
2018-11-12T02:07:15.355Z,7.60
2018-11-12T02:09:43.666Z,7.50
2018-11-12T02:12:11.963Z,7.50
2018-11-12T02:14:40.304Z,7.40
2018-11-12T02:17:08.544Z,7.30
2018-11-12T02:19:36.829Z,7.20
2018-11-12T02:22:05.598Z,7.10
2018-11-12T02:24:33.886Z,7.00
2018-11-12T02:27:02.178Z,7.00
2018-11-12T02:29:30.527Z,7.10
2018-11-12T02:31:58.788Z,7.10
2018-11-12T02:34:27.094Z,7.20
2018-11-12T02:36:55.388Z,7.20
2018-11-12T02:39:23.699Z,7.00
2018-11-12T02:41:51.970Z,6.80
2018-11-12T02:44:20.274Z,6.60
2018-11-12T02:46:48.564Z,6.50
2018-11-12T02:49:16.962Z,6.30
2018-11-12T02:51:45.256Z,6.30
2018-11-12T02:54:13.558Z,6.40
2018-11-12T02:56:41.936Z,6.40
2018-11-12T02:59:10.851Z,6.30
2018-11-12T03:01:39.171Z,6.30
2018-11-12T03:04:07.466Z,6.30
2018-11-12T03:06:35.733Z,6.10
2018-11-12T03:09:06.814Z,6.00
2018-11-12T03:11:35.086Z,6.00
2018-11-12T03:14:03.407Z,6.00
2018-11-12T03:16:31.690Z,5.90
2018-11-12T03:18:59.969Z,5.90
2018-11-12T03:21:28.275Z,5.90
2018-11-12T03:23:56.562Z,5.90
2018-11-12T03:26:24.946Z,6.20
2018-11-12T03:28:53.282Z,6.10
2018-11-12T03:31:21.595Z,6.10
2018-11-12T03:33:49.962Z,6.20
2018-11-12T03:36:18.279Z,6.30
2018-11-12T03:38:46.539Z,6.30
2018-11-12T03:41:14.823Z,6.10
2018-11-12T03:43:43.192Z,6.00
2018-11-12T03:46:11.503Z,5.90
2018-11-12T03:48:39.871Z,5.90
2018-11-12T03:51:08.158Z,5.90
2018-11-12T03:53:36.445Z,5.90
2018-11-12T03:56:05.118Z,5.80
2018-11-12T03:58:33.397Z,5.80
2018-11-12T04:01:01.754Z,5.80
2018-11-12T04:03:30.049Z,5.80
2018-11-12T04:05:58.341Z,5.90
2018-11-12T04:08:26.615Z,6.00
2018-11-12T04:10:54.901Z,5.90
2018-11-12T04:13:23.182Z,6.00
2018-11-12T04:15:51.465Z,6.00
2018-11-12T04:18:19.754Z,5.80
2018-11-12T04:20:48.082Z,5.80
2018-11-12T04:23:16.363Z,5.80
2018-11-12T04:25:44.652Z,5.80
2018-11-12T04:28:12.962Z,5.70
2018-11-12T04:30:41.271Z,5.60
2018-11-12T04:33:09.530Z,5.60
2018-11-12T04:35:37.839Z,5.60
2018-11-12T04:38:06.097Z,5.70
2018-11-12T04:40:34.410Z,5.80
2018-11-12T04:43:02.687Z,5.70
2018-11-12T04:45:31.002Z,5.70
2018-11-12T04:47:59.267Z,5.70
2018-11-12T04:50:28.432Z,5.80
2018-11-12T04:52:56.739Z,5.80
2018-11-12T04:55:25.655Z,5.90
2018-11-12T04:57:53.827Z,6.00
2018-11-12T05:00:24.563Z,6.10
2018-11-12T05:02:53.063Z,6.10
2018-11-12T05:05:22.563Z,6.30
2018-11-12T05:07:50.832Z,6.40
2018-11-12T05:10:20.468Z,6.40
2018-11-12T05:12:49.243Z,6.20
2018-11-12T05:15:18.775Z,6.10
2018-11-12T05:17:47.044Z,6.00
2018-11-12T05:20:19.512Z,5.90
2018-11-12T05:22:47.759Z,6.00
2018-11-12T05:25:16.086Z,6.20
2018-11-12T05:27:44.393Z,6.20
2018-11-12T05:30:16.702Z,6.20
2018-11-12T05:32:44.975Z,6.20
2018-11-12T05:35:14.518Z,6.10
2018-11-12T05:37:43.037Z,6.10
2018-11-12T05:40:14.391Z,6.10
2018-11-12T05:42:43.046Z,6.10
2018-11-12T05:45:11.700Z,6.20
2018-11-12T05:47:40.086Z,6.20
2018-11-12T05:50:12.593Z,6.60
2018-11-12T05:52:41.734Z,6.60
2018-11-12T05:55:11.164Z,6.70
2018-11-12T05:57:40.282Z,6.70
2018-11-12T06:00:09.899Z,6.60
2018-11-12T06:02:38.550Z,6.50
2018-11-12T06:05:07.686Z,6.50
2018-11-12T06:07:36.166Z,6.40
2018-11-12T06:10:06.318Z,6.50
2018-11-12T06:12:34.627Z,6.60
2018-11-12T06:15:02.930Z,6.70
2018-11-12T06:17:31.234Z,6.70
2018-11-12T06:19:59.510Z,6.60
2018-11-12T06:22:27.869Z,6.60
2018-11-12T06:24:56.131Z,6.70
2018-11-12T06:27:24.435Z,6.80
2018-11-12T06:29:52.733Z,6.90
2018-11-12T06:32:21.039Z,6.80
2018-11-12T06:34:49.888Z,6.80
2018-11-12T06:37:18.206Z,7.00
2018-11-12T06:39:46.462Z,6.90
2018-11-12T06:42:14.769Z,6.90
2018-11-12T06:44:43.058Z,6.90
2018-11-12T06:47:11.382Z,7.00
2018-11-12T06:49:39.660Z,7.20
2018-11-12T06:52:07.980Z,7.30
2018-11-12T06:54:36.250Z,7.20
2018-11-12T06:57:04.670Z,7.20
2018-11-12T06:59:32.967Z,7.20
2018-11-12T07:02:01.279Z,7.20
2018-11-12T07:04:29.549Z,7.30
2018-11-12T07:06:57.916Z,7.40
2018-11-12T07:09:26.156Z,7.40
2018-11-12T07:11:54.451Z,7.50
2018-11-12T07:14:22.721Z,7.60
2018-11-12T07:16:51.011Z,7.60
2018-11-12T07:19:19.310Z,7.80
2018-11-12T07:21:47.632Z,7.80
2018-11-12T07:24:16.164Z,7.80
2018-11-12T07:26:44.482Z,7.80
2018-11-12T07:29:12.764Z,7.90
2018-11-12T07:31:41.156Z,8.00
2018-11-12T07:34:09.551Z,8.00
2018-11-12T07:36:38.718Z,8.20
2018-11-12T07:39:08.844Z,8.30
2018-11-12T07:41:37.134Z,8.50
2018-11-12T07:44:05.714Z,8.90
2018-11-12T07:46:34.041Z,9.10
2018-11-12T07:49:02.327Z,9.10
2018-11-12T07:51:30.726Z,9.10
2018-11-12T07:53:58.902Z,9.20
2018-11-12T07:56:27.264Z,9.20
2018-11-12T07:58:55.511Z,9.20
2018-11-12T08:01:23.820Z,9.20
2018-11-12T08:03:52.193Z,9.30
2018-11-12T08:06:20.504Z,9.30
2018-11-12T08:08:48.809Z,9.30
2018-11-12T08:11:17.107Z,9.40
2018-11-12T08:13:45.394Z,9.40
2018-11-12T08:16:13.670Z,9.60
2018-11-12T08:18:42.113Z,9.70
2018-11-12T08:21:10.335Z,9.80
2018-11-12T08:23:38.614Z,9.90
2018-11-12T08:26:07.002Z,9.90
2018-11-12T08:28:35.307Z,10.00
2018-11-12T08:31:03.611Z,10.10
2018-11-12T08:33:31.915Z,10.30
2018-11-12T08:36:00.209Z,10.40
2018-11-12T08:38:28.506Z,10.60
2018-11-12T08:40:56.799Z,10.70
2018-11-12T08:43:25.103Z,10.70
2018-11-12T08:45:53.411Z,10.70
2018-11-12T08:48:21.785Z,10.80
2018-11-12T08:50:50.028Z,10.80
2018-11-12T08:53:18.350Z,10.80
2018-11-12T08:55:46.718Z,10.80
2018-11-12T08:58:15.627Z,11.00
2018-11-12T09:00:43.289Z,11.00
2018-11-12T09:03:11.567Z,11.10
2018-11-12T09:05:39.836Z,10.80
2018-11-12T09:08:08.138Z,10.70
2018-11-12T09:10:36.438Z,10.70
2018-11-12T09:13:04.747Z,10.70
2018-11-12T09:15:33.075Z,10.60
2018-11-12T09:18:01.878Z,10.80
2018-11-12T09:20:30.335Z,11.10
2018-11-12T09:22:58.665Z,11.40
2018-11-12T09:25:27.854Z,11.40
2018-11-12T09:27:56.176Z,11.30
2018-11-12T09:30:25.730Z,11.20
2018-11-12T09:32:54.018Z,11.10
2018-11-12T09:35:23.655Z,11.20
2018-11-12T09:37:52.891Z,11.30
2018-11-12T09:40:23.462Z,11.30
2018-11-12T09:42:51.983Z,11.40
2018-11-12T09:45:20.286Z,11.70
2018-11-12T09:47:48.644Z,11.90
2018-11-12T09:50:18.090Z,12.10
2018-11-12T09:52:47.643Z,12.30
2018-11-12T09:55:16.814Z,12.60
2018-11-12T09:57:46.575Z,12.70
2018-11-12T10:00:16.494Z,12.90
2018-11-12T10:02:46.645Z,13.10
2018-11-12T10:05:16.243Z,13.30
2018-11-12T10:07:45.702Z,13.50
2018-11-12T10:10:30.505Z,13.60
2018-11-12T10:12:58.430Z,13.80
2018-11-12T10:15:27.880Z,14.00
2018-11-12T10:17:54.949Z,14.10
2018-11-12T10:20:21.507Z,14.40
2018-11-12T10:22:49.758Z,14.80
2018-11-12T10:25:19.041Z,14.90
2018-11-12T10:27:47.345Z,15.00
2018-11-12T10:30:15.636Z,15.20
2018-11-12T10:32:43.914Z,15.20
2018-11-12T10:35:12.203Z,15.10
2018-11-12T10:37:41.396Z,15.50
2018-11-12T10:40:12.307Z,15.60
2018-11-12T10:42:40.685Z,15.20
2018-11-12T10:45:09.151Z,15.30
2018-11-12T10:47:37.450Z,15.10
2018-11-12T10:50:06.110Z,14.70
2018-11-12T10:52:34.422Z,14.40
2018-11-12T10:55:05.629Z,14.20
2018-11-12T10:57:31.213Z,14.20
2018-11-12T10:59:59.527Z,14.30
2018-11-12T11:02:32.687Z,14.30
2018-11-12T11:05:01.626Z,14.20
2018-11-12T11:07:29.919Z,14.20
2018-11-12T11:09:58.414Z,14.20
2018-11-12T11:12:26.706Z,14.40
2018-11-12T11:14:55.045Z,14.10
2018-11-12T11:17:23.766Z,14.30
2018-11-12T11:19:52.070Z,14.40
2018-11-12T11:22:20.406Z,14.30
2018-11-12T11:24:48.738Z,14.10
2018-11-12T11:27:17.035Z,13.80
2018-11-12T11:29:45.338Z,13.50
2018-11-12T11:32:13.669Z,13.30
2018-11-12T11:34:41.994Z,13.00
2018-11-12T11:37:10.348Z,12.80
2018-11-12T11:39:38.642Z,12.60
2018-11-12T11:42:06.966Z,12.50
2018-11-12T11:44:35.294Z,12.40
2018-11-12T11:47:03.599Z,12.30
2018-11-12T11:49:31.913Z,12.30
2018-11-12T11:52:00.196Z,12.30
2018-11-12T11:54:28.932Z,12.30
2018-11-12T11:56:57.222Z,12.30
2018-11-12T11:59:25.698Z,12.40
2018-11-12T12:01:54.000Z,12.60
2018-11-12T12:04:22.307Z,12.70
2018-11-12T12:06:50.602Z,12.60
2018-11-12T12:09:18.913Z,12.40
2018-11-12T12:11:47.190Z,12.50
2018-11-12T12:14:15.659Z,12.40
2018-11-12T12:16:44.066Z,12.30
2018-11-12T12:19:12.447Z,12.20
2018-11-12T12:21:40.680Z,12.20
2018-11-12T12:24:09.053Z,12.20
2018-11-12T12:26:37.350Z,12.20
2018-11-12T12:29:05.839Z,12.20
2018-11-12T12:31:34.170Z,12.30
2018-11-12T12:34:02.562Z,12.30
2018-11-12T12:36:30.914Z,12.30
2018-11-12T12:38:59.202Z,12.20
2018-11-12T12:41:27.500Z,12.20
2018-11-12T12:43:55.791Z,12.20
2018-11-12T12:46:24.106Z,12.20
2018-11-12T12:48:52.370Z,12.20
2018-11-12T12:51:20.699Z,12.20
2018-11-12T12:53:48.990Z,12.20
2018-11-12T12:56:17.354Z,12.20
2018-11-12T12:58:45.598Z,12.20
2018-11-12T13:01:13.892Z,12.20
2018-11-12T13:03:42.184Z,12.20
2018-11-12T13:06:10.479Z,12.30
2018-11-12T13:08:38.772Z,12.70
2018-11-12T13:11:07.081Z,12.80
2018-11-12T13:13:35.368Z,12.70
2018-11-12T13:16:05.735Z,12.50
2018-11-12T13:18:34.014Z,12.40
2018-11-12T13:21:02.395Z,12.40
2018-11-12T13:23:30.614Z,12.40
2018-11-12T13:25:58.934Z,12.40
2018-11-12T13:28:27.242Z,12.30
2018-11-12T13:30:55.546Z,12.20
2018-11-12T13:33:23.830Z,12.20
2018-11-12T13:35:52.142Z,12.10
2018-11-12T13:38:20.440Z,12.10
2018-11-12T13:40:48.755Z,12.20
2018-11-12T13:43:17.050Z,12.20
2018-11-12T13:45:45.374Z,12.40
2018-11-12T13:48:13.739Z,12.70
2018-11-12T13:50:42.002Z,12.80
2018-11-12T13:53:10.382Z,13.00
2018-11-12T13:55:38.592Z,12.90
2018-11-12T13:58:06.910Z,12.80
2018-11-12T14:00:35.218Z,12.60
2018-11-12T14:03:03.566Z,12.70
2018-11-12T14:05:31.846Z,12.60
2018-11-12T14:08:00.169Z,12.50
2018-11-12T14:10:29.530Z,12.30
2018-11-12T14:12:58.454Z,12.30
2018-11-12T14:15:27.015Z,12.20
2018-11-12T14:17:55.794Z,12.10
2018-11-12T14:20:24.953Z,12.00
2018-11-12T14:22:53.211Z,11.90
2018-11-12T14:25:22.530Z,11.80
2018-11-12T14:27:52.011Z,11.80
2018-11-12T14:30:21.871Z,11.90
2018-11-12T14:32:50.194Z,11.90
2018-11-12T14:35:18.472Z,11.90
2018-11-12T14:37:47.295Z,12.00
2018-11-12T14:40:16.684Z,12.00
2018-11-12T14:42:45.016Z,12.00
2018-11-12T14:45:14.855Z,12.00
2018-11-12T14:47:43.626Z,12.00
2018-11-12T14:50:11.915Z,12.00
2018-11-12T14:52:40.231Z,12.00
2018-11-12T14:55:09.753Z,12.10
2018-11-12T14:57:38.003Z,12.10
2018-11-12T15:00:12.178Z,12.20
2018-11-12T15:02:40.471Z,12.20
2018-11-12T15:05:08.767Z,12.20
2018-11-12T15:07:37.054Z,12.20
2018-11-12T15:10:07.204Z,12.20
2018-11-12T15:12:35.529Z,12.20
2018-11-12T15:15:04.255Z,12.20
2018-11-12T15:17:32.570Z,12.20
2018-11-12T15:20:00.855Z,12.20
2018-11-12T15:22:29.199Z,12.30
2018-11-12T15:24:57.474Z,12.30
2018-11-12T15:27:25.903Z,12.20
2018-11-12T15:29:54.186Z,12.00
2018-11-12T15:32:22.483Z,11.90
2018-11-12T15:34:50.754Z,11.80
2018-11-12T15:37:19.093Z,11.70
2018-11-12T15:39:47.351Z,11.50
2018-11-12T15:42:15.650Z,11.50
2018-11-12T15:44:43.971Z,11.50
2018-11-12T15:47:12.836Z,11.40
2018-11-12T15:49:41.471Z,11.30
2018-11-12T15:52:09.782Z,11.30
2018-11-12T15:54:38.067Z,11.30
2018-11-12T15:57:06.678Z,11.30
2018-11-12T15:59:34.960Z,11.30
2018-11-12T16:02:03.295Z,11.20
2018-11-12T16:04:31.599Z,11.20
2018-11-12T16:06:59.969Z,11.10
2018-11-12T16:09:28.288Z,11.10
2018-11-12T16:11:56.648Z,11.00
2018-11-12T16:14:24.923Z,11.00
2018-11-12T16:16:53.199Z,10.90
2018-11-12T16:19:21.589Z,10.90
2018-11-12T16:21:49.790Z,10.80
2018-11-12T16:24:18.110Z,10.60
2018-11-12T16:26:46.510Z,10.60
2018-11-12T16:29:14.714Z,10.50
2018-11-12T16:31:42.994Z,10.30
2018-11-12T16:34:11.323Z,10.20
2018-11-12T16:36:39.607Z,10.00
2018-11-12T16:39:09.710Z,9.90
2018-11-12T16:41:38.634Z,9.80
2018-11-12T16:44:06.976Z,9.70
2018-11-12T16:46:35.311Z,9.70
2018-11-12T16:49:03.650Z,9.60
2018-11-12T16:51:31.954Z,9.60
2018-11-12T16:54:00.242Z,9.60
2018-11-12T16:56:28.551Z,9.60
2018-11-12T16:58:56.858Z,9.40
2018-11-12T17:01:25.184Z,9.30
2018-11-12T17:03:53.484Z,9.20
2018-11-12T17:06:21.771Z,9.20
2018-11-12T17:08:50.063Z,9.30
2018-11-12T17:11:18.344Z,9.20
2018-11-12T17:13:46.655Z,9.10
2018-11-12T17:16:14.941Z,9.00
2018-11-12T17:18:43.254Z,9.00
2018-11-12T17:21:11.522Z,9.00
2018-11-12T17:23:39.802Z,8.90
2018-11-12T17:26:08.093Z,8.80
2018-11-12T17:28:36.430Z,8.80
2018-11-12T17:31:04.795Z,8.80
2018-11-12T17:33:33.090Z,8.80
2018-11-12T17:36:01.348Z,8.80
2018-11-12T17:38:29.650Z,8.90
2018-11-12T17:40:57.926Z,8.80
2018-11-12T17:43:26.296Z,8.80
2018-11-12T17:45:54.548Z,8.80
2018-11-12T17:48:22.840Z,8.90
2018-11-12T17:50:51.142Z,8.80
2018-11-12T17:53:19.474Z,8.70
2018-11-12T17:55:47.750Z,8.50
2018-11-12T17:58:16.166Z,8.20
2018-11-12T18:00:44.439Z,8.10
2018-11-12T18:03:12.761Z,8.10
2018-11-12T18:05:41.041Z,8.00
2018-11-12T18:08:09.510Z,8.00
2018-11-12T18:10:37.811Z,8.10
2018-11-12T18:13:06.102Z,8.10
2018-11-12T18:15:34.474Z,8.10
2018-11-12T18:18:02.742Z,8.10
2018-11-12T18:20:31.030Z,8.10
2018-11-12T18:22:59.354Z,8.20
2018-11-12T18:25:27.646Z,8.30
2018-11-12T18:27:56.426Z,8.40
2018-11-12T18:33:02.477Z,8.50
2018-11-12T18:35:30.802Z,8.20
2018-11-12T18:37:59.146Z,8.10
2018-11-12T18:40:29.662Z,8.00
2018-11-12T18:42:58.023Z,8.00
2018-11-12T18:45:27.237Z,7.90
2018-11-12T18:47:55.898Z,8.00
2018-11-12T18:50:26.635Z,7.90
2018-11-12T18:52:54.896Z,7.70
2018-11-12T18:55:23.210Z,7.60
2018-11-12T18:57:52.039Z,7.50
2018-11-12T19:00:21.666Z,7.40
2018-11-12T19:02:50.381Z,7.40
2018-11-12T19:05:20.902Z,7.30
2018-11-12T19:07:52.222Z,7.30
2018-11-12T19:10:24.964Z,7.30
2018-11-12T19:12:53.446Z,7.30
2018-11-12T19:15:23.304Z,7.30
2018-11-12T19:17:53.882Z,7.20
2018-11-12T19:20:22.166Z,7.40
2018-11-12T19:22:50.451Z,7.40
2018-11-12T19:25:18.845Z,7.40
2018-11-12T19:27:47.134Z,7.40
2018-11-12T19:30:18.705Z,7.20
2018-11-12T19:32:47.128Z,7.10
2018-11-12T19:35:16.916Z,7.10
2018-11-12T19:37:45.204Z,7.20
2018-11-12T19:40:22.177Z,7.10
2018-11-12T19:42:51.486Z,7.20
2018-11-12T19:45:19.797Z,7.20
2018-11-12T19:47:49.384Z,7.20
2018-11-12T19:50:18.839Z,7.30
2018-11-12T19:52:48.134Z,7.40
2018-11-12T19:55:16.589Z,7.20
2018-11-12T19:57:45.410Z,7.20
2018-11-12T20:00:15.326Z,7.20
2018-11-12T20:02:44.742Z,7.20
2018-11-12T20:05:13.020Z,7.20
2018-11-12T20:07:41.754Z,7.10
2018-11-12T20:10:12.715Z,7.00
2018-11-12T20:12:41.188Z,7.00
2018-11-12T20:15:10.394Z,7.10
2018-11-12T20:17:38.907Z,7.20
2018-11-12T20:20:10.962Z,7.30
2018-11-12T20:22:39.396Z,7.30
2018-11-12T20:25:08.273Z,7.30
2018-11-12T20:27:36.579Z,7.40
2018-11-12T20:30:05.954Z,7.50
2018-11-12T20:32:34.334Z,7.60
2018-11-12T20:35:02.590Z,7.70
2018-11-12T20:37:30.860Z,7.80
2018-11-12T20:39:59.159Z,7.80
2018-11-12T20:42:27.464Z,7.90
2018-11-12T20:44:55.778Z,8.10
2018-11-12T20:47:24.062Z,8.30
2018-11-12T20:49:52.437Z,8.10
2018-11-12T20:52:20.718Z,8.10
2018-11-12T20:54:49.036Z,8.00
2018-11-12T20:57:18.149Z,8.10
2018-11-12T20:59:46.446Z,8.10
2018-11-12T21:02:14.711Z,8.30
2018-11-12T21:04:43.014Z,8.40
2018-11-12T21:07:11.286Z,8.50
2018-11-12T21:09:39.655Z,8.60
2018-11-12T21:12:07.875Z,8.70
2018-11-12T21:14:36.189Z,8.70
2018-11-12T21:17:04.751Z,8.80
2018-11-12T21:19:33.099Z,8.70
2018-11-12T21:22:01.354Z,8.90
2018-11-12T21:24:29.642Z,9.00
2018-11-12T21:26:57.931Z,8.90
2018-11-12T21:29:26.239Z,8.70
2018-11-12T21:31:54.505Z,8.50
2018-11-12T21:34:22.803Z,8.50
2018-11-12T21:36:51.138Z,8.40
2018-11-12T21:39:19.421Z,8.40
2018-11-12T21:41:47.754Z,8.30
2018-11-12T21:44:16.052Z,8.40
2018-11-12T21:46:44.337Z,8.40
2018-11-12T21:49:12.662Z,8.50
2018-11-12T21:51:40.934Z,8.50
2018-11-12T21:54:09.257Z,8.50
2018-11-12T21:56:37.562Z,8.50
2018-11-12T21:59:06.121Z,8.60
2018-11-12T22:01:34.411Z,8.60
2018-11-12T22:04:02.766Z,8.80
2018-11-12T22:06:31.031Z,8.70
2018-11-12T22:08:59.295Z,8.80
2018-11-12T22:11:27.578Z,8.80
2018-11-12T22:13:55.850Z,8.80
2018-11-12T22:16:24.206Z,8.80
2018-11-12T22:18:52.460Z,8.80
2018-11-12T22:21:20.858Z,8.90
2018-11-12T22:23:49.132Z,9.00
2018-11-12T22:26:17.424Z,9.10
2018-11-12T22:28:45.707Z,9.10
2018-11-12T22:31:14.038Z,9.00
2018-11-12T22:33:42.326Z,8.90
2018-11-12T22:36:10.612Z,8.70
2018-11-12T22:38:38.874Z,8.80
2018-11-12T22:41:07.158Z,8.70
2018-11-12T22:43:35.493Z,8.70
2018-11-12T22:46:03.792Z,8.50
2018-11-12T22:48:32.065Z,8.40
2018-11-12T22:51:00.360Z,8.60
2018-11-12T22:53:28.623Z,8.60
2018-11-12T22:55:56.915Z,8.50
2018-11-12T22:58:25.237Z,8.40
2018-11-12T23:00:53.546Z,8.40
2018-11-12T23:03:21.832Z,8.40
2018-11-12T23:05:54.477Z,8.40
2018-11-12T23:08:22.750Z,8.60
2018-11-12T23:10:51.042Z,8.60
2018-11-12T23:13:19.302Z,8.50
2018-11-12T23:15:47.590Z,8.30
2018-11-12T23:18:15.878Z,8.30
2018-11-12T23:20:44.206Z,8.20
2018-11-12T23:23:12.502Z,8.20
2018-11-12T23:25:40.799Z,8.10
2018-11-12T23:28:09.082Z,8.10
2018-11-12T23:30:37.390Z,8.10
2018-11-12T23:33:05.682Z,8.00
2018-11-12T23:35:33.974Z,8.10
2018-11-12T23:38:02.246Z,8.10
2018-11-12T23:40:30.546Z,8.10
2018-11-12T23:42:59.018Z,8.00
2018-11-12T23:45:27.326Z,8.10
2018-11-12T23:47:55.628Z,8.00
2018-11-12T23:50:23.937Z,7.90
2018-11-12T23:52:52.927Z,7.90
2018-11-12T23:55:21.551Z,7.90
2018-11-12T23:57:50.331Z,7.90
